Impacts METAR Board
IDs:

KSLC - Salt Lake City Intl, UT, US

Updated at: 1900 UTC 22 Sep 2018
Potential Impact None Slight Moderate High
Time 22/07Z 22/08Z 22/09Z 22/10Z 22/11Z 22/12Z 22/13Z 22/14Z 22/15Z 22/16Z 22/17Z 22/18Z 22/19Z
Temp63 64 63 62 60 60 61 62 67 70 76 81 84
Dewpt33 31 28 28 32 30 28 29 26 31 32 30 31
Altim30.11 30.11 30.10 30.10 30.10 30.09 30.10 30.10 30.12 30.12 30.12 30.10 30.08
VIS10 10 10 10 10 10 10 7 6 8 10 10 10
CIG-- -- -- -- -- -- -- -- -- -- -- -- --
CoverCLRCLRCLRCLRCLRCLRFEWFEWFEWFEWFEWFEWFEW
FltCatVFRVFRVFRVFRVFRVFRVFRVFRVFRVFRVFRVFRVFR
WX----------------HZ--------
WDir160150160130130130130140160130150160180
WSpd8 8 11 9 9 9 10 12 10 4 4 19 21
WGst-- -- -- -- -- -- -- -- -- -- -- 23 30
Raw hourly METARs
KSLC 220654Z 16008KT 10SM CLR 17/01 A3011 RMK AO2 SLP151 T01720006 402830106
KSLC 220754Z 15008KT 10SM CLR 18/M01 A3011 RMK AO2 SLP147 T01781006
KSLC 220854Z 16011KT 10SM CLR 17/M02 A3010 RMK AO2 SLP144 T01721022 56004
KSLC 220954Z 13009KT 10SM CLR 17/M02 A3010 RMK AO2 SLP145 T01671022
KSLC 221054Z 13009KT 10SM CLR 16/00 A3010 RMK AO2 SLP144 T01560000
KSLC 221154Z 13009KT 10SM CLR 16/M01 A3009 RMK AO2 SLP143 T01561011 10183 20150 58003
KSLC 221254Z 13010KT 10SM FEW220 16/M02 A3010 RMK AO2 SLP145 T01611022
KSLC 221354Z 14012KT 7SM FEW220 17/M02 A3010 RMK AO2 SLP150 T01671017
KSLC 221454Z 16010KT 6SM HZ FEW200 19/M03 A3012 RMK AO2 SLP154 T01941033 53007
KSLC 221554Z 13004KT 8SM FEW200 21/M01 A3012 RMK AO2 SLP155 T02111006
KSLC 221654Z 15004KT 10SM FEW200 24/00 A3012 RMK AO2 SLP151 T02440000
KSLC 221754Z 16019G23KT 10SM FEW160 27/M01 A3010 RMK AO2 SLP142 T02721011 10278 20150 58006
KSLC 221854Z 18021G30KT 10SM FEW120 29/M01 A3008 RMK AO2 PK WND 19030/1852 SLP133 T02891006



Page loaded:  19:08 UTC  |   12:08 PM Pacific  |   01:08 PM Mountain  |   02:08 PM Central  |   03:08 PM Eastern

 

ADVISORIES

FORECASTS

FORECASTS

OBSERVATIONS

USER TOOLS

ABOUT US